createdAt,value
2022-09-07T00:00:58.558Z,14.13
2022-09-07T00:03:26.017Z,14.10
2022-09-07T00:05:53.359Z,14.08
2022-09-07T00:08:24.827Z,14.03
2022-09-07T00:10:57.724Z,14.00
2022-09-07T00:13:28.596Z,14.00
2022-09-07T00:15:56.700Z,13.93
2022-09-07T00:18:24.443Z,13.92
2022-09-07T00:21:05.935Z,13.88
2022-09-07T00:23:35.852Z,13.86
2022-09-07T00:26:13.713Z,13.85
2022-09-07T00:28:41.785Z,13.82
2022-09-07T00:31:19.688Z,13.75
2022-09-07T00:33:49.223Z,13.76
2022-09-07T00:36:19.884Z,13.77
2022-09-07T00:38:47.613Z,13.74
2022-09-07T00:41:16.872Z,13.73
2022-09-07T00:43:47.929Z,13.68
2022-09-07T00:46:28.844Z,13.67
2022-09-07T00:49:01.701Z,13.60
2022-09-07T00:51:53.026Z,13.53
2022-09-07T00:54:46.194Z,13.43
2022-09-07T00:57:14.350Z,13.40
2022-09-07T00:59:47.752Z,13.42
2022-09-07T01:02:17.371Z,13.43
2022-09-07T01:04:51.842Z,13.41
2022-09-07T01:07:19.693Z,13.33
2022-09-07T01:09:48.222Z,13.30
2022-09-07T01:12:16.776Z,13.33
2022-09-07T01:14:50.680Z,13.28
2022-09-07T01:17:33.576Z,13.25
2022-09-07T01:20:35.997Z,13.21
2022-09-07T01:23:24.643Z,13.20
2022-09-07T01:26:29.759Z,13.18
2022-09-07T01:29:31.570Z,13.14
2022-09-07T01:32:08.580Z,13.16
2022-09-07T01:34:38.993Z,13.14
2022-09-07T01:37:51.994Z,13.09
2022-09-07T01:40:38.767Z,13.08
2022-09-07T01:43:48.035Z,13.02
2022-09-07T01:46:28.983Z,13.01
2022-09-07T01:49:21.034Z,12.90
2022-09-07T01:51:57.646Z,12.87
2022-09-07T01:54:33.231Z,12.90
2022-09-07T01:57:13.123Z,12.97
2022-09-07T01:59:50.856Z,12.99
2022-09-07T02:02:30.745Z,13.00
2022-09-07T02:05:33.454Z,12.96
2022-09-07T02:08:28.860Z,12.96
2022-09-07T02:11:04.579Z,12.94
2022-09-07T02:13:46.253Z,12.92
2022-09-07T02:16:27.348Z,12.92
2022-09-07T02:19:05.202Z,12.89
2022-09-07T02:21:40.329Z,12.85
2022-09-07T02:24:28.964Z,12.88
2022-09-07T02:26:59.377Z,12.90
2022-09-07T02:29:30.754Z,12.87
2022-09-07T02:31:58.395Z,12.86
2022-09-07T02:34:25.698Z,12.90
2022-09-07T02:36:54.852Z,12.85
2022-09-07T02:39:22.302Z,12.83
2022-09-07T02:41:49.793Z,12.72
2022-09-07T02:44:24.893Z,12.71
2022-09-07T02:47:10.704Z,12.55
2022-09-07T02:50:16.379Z,12.48
2022-09-07T02:53:27.891Z,12.57
2022-09-07T02:56:46.165Z,12.47
2022-09-07T03:00:05.653Z,12.45
2022-09-07T03:02:56.873Z,12.48
2022-09-07T03:05:53.122Z,12.57
2022-09-07T03:08:28.096Z,12.61
2022-09-07T03:10:58.379Z,12.62
2022-09-07T03:13:29.592Z,12.60
2022-09-07T03:15:57.543Z,12.42
2022-09-07T03:18:27.131Z,12.28
2022-09-07T03:20:55.533Z,12.29
2022-09-07T03:23:23.498Z,12.34
2022-09-07T03:25:51.289Z,12.20
2022-09-07T03:28:18.908Z,12.25
2022-09-07T03:30:49.223Z,12.18
2022-09-07T03:33:17.614Z,12.18
2022-09-07T03:36:01.247Z,12.12
2022-09-07T03:38:30.442Z,12.00
2022-09-07T03:41:04.217Z,11.94
2022-09-07T03:43:33.202Z,11.97
2022-09-07T03:46:04.971Z,11.97
2022-09-07T03:48:34.905Z,11.87
2022-09-07T03:51:06.390Z,11.94
2022-09-07T03:53:36.954Z,11.94
2022-09-07T03:56:11.502Z,11.94
2022-09-07T03:58:39.004Z,11.78
2022-09-07T04:01:13.665Z,11.62
2022-09-07T04:03:41.118Z,11.72
2022-09-07T04:06:09.861Z,11.79
2022-09-07T04:08:38.766Z,11.87
2022-09-07T04:11:09.822Z,11.88
2022-09-07T04:13:37.820Z,11.87
2022-09-07T04:16:21.098Z,11.84
2022-09-07T04:18:50.420Z,11.82
2022-09-07T04:21:18.447Z,11.81
2022-09-07T04:23:46.065Z,11.77
2022-09-07T04:26:30.255Z,11.77
2022-09-07T04:28:58.200Z,11.77
2022-09-07T04:31:25.968Z,11.72
2022-09-07T04:33:54.481Z,11.79
2022-09-07T04:36:24.013Z,11.87
2022-09-07T04:38:57.731Z,11.89
2022-09-07T04:41:25.453Z,11.88
2022-09-07T04:43:56.877Z,11.88
2022-09-07T04:46:30.477Z,11.93
2022-09-07T04:49:01.815Z,11.82
2022-09-07T04:51:32.108Z,11.87
2022-09-07T04:54:02.393Z,11.99
2022-09-07T04:56:30.997Z,12.04
2022-09-07T04:58:59.442Z,12.16
2022-09-07T05:01:26.941Z,12.13
2022-09-07T05:03:54.522Z,12.22
2022-09-07T05:06:23.445Z,12.31
2022-09-07T05:08:53.852Z,12.44
2022-09-07T05:11:28.389Z,12.58
2022-09-07T05:14:02.416Z,12.66
2022-09-07T05:16:31.451Z,12.81
2022-09-07T05:19:04.015Z,12.96
2022-09-07T05:21:33.425Z,13.06
2022-09-07T05:24:02.116Z,13.19
2022-09-07T05:26:33.290Z,13.30
2022-09-07T05:31:50.304Z,13.58
2022-09-07T05:34:33.173Z,13.72
2022-09-07T05:37:01.661Z,13.89
2022-09-07T05:39:30.290Z,14.02
2022-09-07T05:41:57.616Z,14.17
2022-09-07T05:47:13.773Z,14.52
2022-09-07T05:49:41.576Z,14.63
2022-09-07T05:52:08.863Z,14.75
2022-09-07T05:54:35.979Z,14.85
2022-09-07T05:57:03.965Z,14.98
2022-09-07T05:59:31.672Z,15.10
2022-09-07T06:01:59.983Z,15.27
2022-09-07T06:04:27.782Z,15.44
2022-09-07T06:12:29.645Z,15.91
2022-09-07T06:14:57.429Z,16.02
2022-09-07T06:17:24.516Z,16.12
2022-09-07T06:19:51.619Z,16.33
2022-09-07T06:22:19.169Z,16.51
2022-09-07T06:24:46.343Z,16.66
2022-09-07T06:27:13.426Z,16.74
2022-09-07T06:29:41.052Z,16.95
2022-09-07T06:34:56.143Z,17.22
2022-09-07T06:37:23.504Z,17.30
2022-09-07T06:39:50.619Z,17.50
2022-09-07T06:42:18.465Z,17.66
2022-09-07T06:44:45.451Z,17.73
2022-09-07T06:47:12.494Z,18.05
2022-09-07T06:49:40.154Z,18.22
2022-09-07T06:52:07.232Z,18.48
2022-09-07T06:57:21.851Z,18.89
2022-09-07T06:59:48.892Z,18.97
2022-09-07T07:02:16.101Z,19.18
2022-09-07T07:04:43.608Z,19.31
2022-09-07T07:07:13.889Z,19.52
2022-09-07T07:09:41.675Z,19.63
2022-09-07T07:12:11.412Z,19.67
2022-09-07T07:14:42.674Z,19.78
2022-09-07T07:17:13.558Z,19.79
2022-09-07T07:19:42.317Z,20.04
2022-09-07T07:22:45.470Z,20.19
2022-09-07T07:25:06.618Z,20.53
2022-09-07T07:27:39.982Z,20.80
2022-09-07T07:30:13.605Z,21.14
2022-09-07T07:32:45.639Z,21.14
2022-09-07T07:35:15.149Z,21.21
2022-09-07T07:37:42.314Z,21.51
2022-09-07T07:42:41.734Z,21.65
2022-09-07T07:47:58.982Z,22.04
2022-09-07T07:50:33.904Z,22.55
2022-09-07T07:55:49.027Z,22.38
2022-09-07T07:58:16.853Z,22.48
2022-09-07T08:00:54.157Z,23.00
2022-09-07T08:03:25.836Z,23.02
2022-09-07T08:05:54.081Z,23.17
2022-09-07T08:08:23.507Z,23.34
2022-09-07T08:10:51.397Z,23.46
2022-09-07T08:13:19.203Z,23.42
2022-09-07T08:15:46.500Z,23.48
2022-09-07T08:18:17.076Z,23.62
2022-09-07T08:20:44.436Z,23.81
2022-09-07T08:23:11.878Z,24.05
2022-09-07T08:25:49.537Z,24.28
2022-09-07T08:28:16.504Z,24.48
2022-09-07T08:30:45.048Z,24.50
2022-09-07T08:33:12.087Z,24.27
2022-09-07T08:35:39.438Z,24.63
2022-09-07T08:38:07.426Z,24.97
2022-09-07T08:40:38.312Z,25.09
2022-09-07T08:43:21.079Z,25.22
2022-09-07T08:46:00.210Z,25.27
2022-09-07T08:48:34.194Z,25.31
2022-09-07T08:51:22.349Z,25.12
2022-09-07T08:53:52.141Z,24.70
2022-09-07T08:56:33.795Z,25.17
2022-09-07T08:59:15.070Z,25.10
2022-09-07T09:02:26.314Z,25.54
2022-09-07T09:04:31.679Z,25.46
2022-09-07T09:07:27.959Z,25.74
2022-09-07T09:10:37.605Z,26.02
2022-09-07T09:13:14.617Z,26.19
2022-09-07T09:16:14.839Z,26.43
2022-09-07T09:19:44.365Z,25.92
2022-09-07T09:22:21.842Z,26.30
2022-09-07T09:25:17.091Z,26.63
2022-09-07T09:27:44.385Z,26.64
2022-09-07T09:30:18.312Z,26.31
2022-09-07T09:32:50.258Z,26.60
2022-09-07T09:35:35.807Z,26.91
2022-09-07T09:38:06.118Z,26.76
2022-09-07T09:40:37.133Z,27.06
2022-09-07T09:43:25.940Z,27.06
2022-09-07T09:46:13.499Z,26.97
2022-09-07T09:48:42.398Z,27.08
2022-09-07T09:55:03.343Z,27.42
2022-09-07T10:04:02.734Z,27.18
2022-09-07T10:06:32.033Z,27.51
2022-09-07T10:09:03.537Z,27.37
2022-09-07T10:12:06.273Z,27.43
2022-09-07T10:14:46.795Z,27.24
2022-09-07T10:17:38.701Z,27.55
2022-09-07T10:20:17.833Z,27.48
2022-09-07T10:22:52.215Z,27.68
2022-09-07T10:25:37.119Z,27.16
2022-09-07T10:28:06.778Z,27.34
2022-09-07T10:30:48.923Z,27.61
2022-09-07T10:33:26.154Z,27.65
2022-09-07T10:36:23.945Z,27.36
2022-09-07T10:39:13.052Z,27.12
2022-09-07T10:42:35.774Z,27.20
2022-09-07T10:45:20.144Z,27.60
2022-09-07T10:48:27.182Z,27.51
2022-09-07T10:51:13.487Z,27.18
2022-09-07T10:54:42.311Z,27.64
2022-09-07T10:57:33.984Z,27.62
2022-09-07T11:00:14.428Z,27.65
2022-09-07T11:03:26.285Z,27.86
2022-09-07T11:06:15.062Z,28.07
2022-09-07T11:09:22.116Z,28.17
2022-09-07T11:12:08.568Z,28.23
2022-09-07T11:14:45.147Z,28.31
2022-09-07T11:17:38.266Z,28.29
2022-09-07T11:20:24.180Z,28.39
2022-09-07T11:23:32.678Z,28.46
2022-09-07T11:26:17.045Z,28.25
2022-09-07T11:31:54.411Z,28.40
2022-09-07T11:34:35.283Z,28.21
2022-09-07T11:37:29.082Z,28.26
2022-09-07T11:40:22.610Z,28.11
2022-09-07T11:43:01.424Z,28.39
2022-09-07T11:45:46.482Z,28.76
2022-09-07T11:48:40.113Z,28.92
2022-09-07T11:51:42.083Z,28.82
2022-09-07T11:54:39.324Z,28.87
2022-09-07T11:57:43.854Z,28.63
2022-09-07T12:00:37.519Z,28.53
2022-09-07T12:03:30.313Z,28.82
2022-09-07T12:06:16.943Z,28.90
2022-09-07T12:09:09.422Z,28.91
2022-09-07T12:11:59.641Z,28.99
2022-09-07T12:14:51.652Z,29.08
2022-09-07T12:17:31.016Z,29.19
2022-09-07T12:20:17.946Z,29.15
2022-09-07T12:23:17.703Z,29.26
2022-09-07T12:25:48.874Z,29.56
2022-09-07T12:28:25.483Z,29.03
2022-09-07T12:31:02.364Z,29.09
2022-09-07T12:33:40.170Z,29.36
2022-09-07T12:36:26.504Z,29.49
2022-09-07T12:39:06.239Z,29.63
2022-09-07T12:41:47.981Z,29.74
2022-09-07T12:44:20.610Z,29.90
2022-09-07T12:46:53.464Z,30.01
2022-09-07T12:49:34.291Z,30.10
2022-09-07T12:52:16.651Z,30.15
2022-09-07T12:55:16.744Z,30.10
2022-09-07T12:58:12.766Z,30.02
2022-09-07T13:01:30.609Z,29.89
2022-09-07T13:04:26.796Z,29.95
2022-09-07T13:07:36.006Z,29.93
2022-09-07T13:10:36.025Z,29.78
2022-09-07T13:16:15.351Z,30.06
2022-09-07T13:18:44.254Z,29.91
2022-09-07T13:21:11.990Z,30.01
2022-09-07T13:27:05.757Z,29.81
2022-09-07T13:29:49.646Z,29.96
2022-09-07T13:35:29.514Z,29.88
2022-09-07T13:38:03.208Z,29.63
2022-09-07T13:40:39.224Z,29.61
2022-09-07T13:43:20.276Z,29.88
2022-09-07T13:45:53.595Z,30.00
2022-09-07T13:48:44.222Z,29.92
2022-09-07T13:51:45.672Z,29.95
2022-09-07T13:54:52.422Z,30.05
2022-09-07T13:57:44.930Z,29.74
2022-09-07T14:00:17.402Z,29.85
2022-09-07T14:02:55.795Z,29.94
2022-09-07T14:05:24.132Z,29.88
2022-09-07T14:07:52.540Z,30.10
2022-09-07T14:10:24.208Z,30.19
2022-09-07T14:13:12.280Z,29.97
2022-09-07T14:15:48.302Z,29.88
2022-09-07T14:18:30.103Z,29.87
2022-09-07T14:20:58.698Z,29.73
2022-09-07T14:23:30.213Z,29.70
2022-09-07T14:26:21.976Z,29.74
2022-09-07T14:28:52.224Z,29.70
2022-09-07T14:31:22.280Z,29.65
2022-09-07T14:33:53.766Z,29.72
2022-09-07T14:36:44.618Z,29.49
2022-09-07T14:39:17.255Z,29.43
2022-09-07T14:41:46.044Z,29.42
2022-09-07T14:44:40.236Z,28.80
2022-09-07T14:47:21.523Z,28.63
2022-09-07T14:49:53.289Z,28.68
2022-09-07T14:52:35.762Z,28.69
2022-09-07T14:55:54.131Z,28.65
2022-09-07T14:58:24.597Z,28.57
2022-09-07T15:04:01.866Z,28.26
2022-09-07T15:09:38.233Z,28.06
2022-09-07T15:12:27.229Z,28.10
2022-09-07T15:15:21.413Z,27.66
2022-09-07T15:17:48.914Z,27.68
2022-09-07T15:20:44.314Z,27.66
2022-09-07T15:23:17.783Z,27.56
2022-09-07T15:25:53.626Z,27.47
2022-09-07T15:34:17.546Z,27.12
2022-09-07T15:36:52.227Z,26.92
2022-09-07T15:39:27.959Z,26.92
2022-09-07T15:41:56.009Z,27.01
2022-09-07T15:44:26.290Z,26.99
2022-09-07T15:49:50.239Z,26.87
2022-09-07T15:52:18.206Z,26.96
2022-09-07T15:54:45.697Z,26.71
2022-09-07T16:00:00.458Z,26.82
2022-09-07T16:05:30.923Z,26.65
2022-09-07T16:11:04.705Z,26.80
2022-09-07T16:13:32.827Z,26.71
2022-09-07T16:16:00.601Z,26.66
2022-09-07T16:18:31.227Z,26.57
2022-09-07T16:21:11.813Z,26.60
2022-09-07T16:23:47.176Z,26.68
2022-09-07T16:26:16.694Z,26.68
2022-09-07T16:28:47.393Z,26.58
2022-09-07T16:31:26.596Z,26.43
2022-09-07T16:33:54.820Z,26.34
2022-09-07T16:36:25.348Z,26.35
2022-09-07T16:38:58.968Z,26.36
2022-09-07T16:41:31.609Z,26.34
2022-09-07T16:43:59.201Z,26.32
2022-09-07T16:46:30.654Z,26.26
2022-09-07T16:48:58.429Z,26.19
2022-09-07T16:51:25.563Z,26.14
2022-09-07T16:53:56.291Z,26.06
2022-09-07T16:56:27.247Z,25.97
2022-09-07T16:58:58.451Z,25.91
2022-09-07T17:01:34.696Z,25.85
2022-09-07T17:04:05.545Z,25.77
2022-09-07T17:06:35.448Z,25.67
2022-09-07T17:09:02.650Z,25.58
2022-09-07T17:11:33.518Z,25.50
2022-09-07T17:14:01.903Z,25.42
2022-09-07T17:16:33.515Z,25.32
2022-09-07T17:21:51.763Z,25.15
2022-09-07T17:24:19.673Z,25.07
2022-09-07T17:26:46.949Z,24.98
2022-09-07T17:29:14.937Z,24.91
2022-09-07T17:34:30.591Z,24.71
2022-09-07T17:37:00.618Z,24.61
2022-09-07T17:39:28.851Z,24.52
2022-09-07T17:41:56.707Z,24.42
2022-09-07T17:44:23.830Z,24.33
2022-09-07T17:46:51.741Z,24.22
2022-09-07T17:49:19.441Z,24.11
2022-09-07T17:51:46.823Z,24.02
2022-09-07T17:54:17.295Z,23.96
2022-09-07T17:56:45.981Z,23.86
2022-09-07T18:02:01.323Z,23.70
2022-09-07T18:04:28.943Z,23.62
2022-09-07T18:06:56.287Z,23.55
2022-09-07T18:09:24.074Z,23.46
2022-09-07T18:11:51.284Z,23.39
2022-09-07T18:14:19.707Z,23.31
2022-09-07T18:16:50.122Z,23.25
2022-09-07T18:19:18.833Z,23.17
2022-09-07T18:21:47.911Z,23.09
2022-09-07T18:24:20.112Z,23.02
2022-09-07T18:26:50.701Z,22.94
2022-09-07T18:29:32.295Z,22.88
2022-09-07T18:32:08.008Z,22.76
2022-09-07T18:34:40.582Z,22.68
2022-09-07T18:37:08.928Z,22.62
2022-09-07T18:39:36.691Z,22.57
2022-09-07T18:42:05.640Z,22.51
2022-09-07T18:47:28.423Z,22.37
2022-09-07T18:49:57.510Z,22.28
2022-09-07T18:55:13.111Z,22.14
2022-09-07T18:57:40.518Z,22.08
2022-09-07T19:00:11.098Z,22.01
2022-09-07T19:02:38.370Z,21.96
2022-09-07T19:07:53.432Z,21.82
2022-09-07T19:10:20.959Z,21.76
2022-09-07T19:12:48.205Z,21.68
2022-09-07T19:15:15.615Z,21.62
2022-09-07T19:17:43.497Z,21.54
2022-09-07T19:20:10.735Z,21.49
2022-09-07T19:22:38.934Z,21.41
2022-09-07T19:25:06.724Z,21.32
2022-09-07T19:27:34.036Z,21.26
2022-09-07T19:30:03.436Z,21.21
2022-09-07T19:32:31.090Z,21.15
2022-09-07T19:34:58.182Z,21.09
2022-09-07T19:37:25.755Z,21.04
2022-09-07T19:39:56.856Z,21.01
2022-09-07T19:42:26.736Z,20.96
2022-09-07T19:44:54.281Z,20.92
2022-09-07T19:47:23.836Z,20.83
2022-09-07T19:49:52.195Z,20.75
2022-09-07T19:52:19.498Z,20.67
2022-09-07T19:54:47.192Z,20.62
2022-09-07T19:57:14.471Z,20.57
2022-09-07T19:59:41.553Z,20.51
2022-09-07T20:02:10.500Z,20.48
2022-09-07T20:04:37.506Z,20.45
2022-09-07T20:07:06.603Z,20.42
2022-09-07T20:09:34.190Z,20.36
2022-09-07T20:12:03.796Z,20.30
2022-09-07T20:14:31.359Z,20.27
2022-09-07T20:17:00.005Z,20.23
2022-09-07T20:19:27.260Z,20.17
2022-09-07T20:21:55.764Z,20.11
2022-09-07T20:24:23.676Z,20.08
2022-09-07T20:26:50.815Z,20.03
2022-09-07T20:29:33.543Z,20.00
2022-09-07T20:32:03.570Z,19.95
2022-09-07T20:34:30.769Z,19.88
2022-09-07T20:36:58.611Z,19.82
2022-09-07T20:39:26.093Z,19.77
2022-09-07T20:41:53.320Z,19.72
2022-09-07T20:44:20.632Z,19.68
2022-09-07T20:46:49.087Z,19.61
2022-09-07T20:49:16.352Z,19.56
2022-09-07T20:51:43.419Z,19.54
2022-09-07T20:54:12.911Z,19.47
2022-09-07T20:56:40.331Z,19.42
2022-09-07T20:59:07.924Z,19.38
2022-09-07T21:01:35.524Z,19.32
2022-09-07T21:04:04.114Z,19.27
2022-09-07T21:06:32.917Z,19.19
2022-09-07T21:09:00.690Z,19.16
2022-09-07T21:11:35.670Z,19.13
2022-09-07T21:14:07.388Z,19.10
2022-09-07T21:16:36.239Z,19.05
2022-09-07T21:19:07.869Z,19.01
2022-09-07T21:21:39.874Z,18.97
2022-09-07T21:24:18.955Z,18.92
2022-09-07T21:26:48.133Z,18.88
2022-09-07T21:29:23.611Z,18.84
2022-09-07T21:31:53.624Z,18.78
2022-09-07T21:34:22.007Z,18.72
2022-09-07T21:36:49.590Z,18.69
2022-09-07T21:39:17.427Z,18.65
2022-09-07T21:41:45.833Z,18.60
2022-09-07T21:44:16.090Z,18.55
2022-09-07T21:46:44.302Z,18.51
2022-09-07T21:49:12.524Z,18.49
2022-09-07T21:51:39.818Z,18.43
2022-09-07T21:54:07.427Z,18.42
2022-09-07T21:56:35.042Z,18.39
2022-09-07T21:59:02.674Z,18.35
2022-09-07T22:01:31.820Z,18.29
2022-09-07T22:04:03.422Z,18.25
2022-09-07T22:06:32.479Z,18.21
2022-09-07T22:09:00.889Z,18.15
2022-09-07T22:11:30.499Z,18.12
2022-09-07T22:14:03.040Z,18.11
2022-09-07T22:16:34.427Z,18.07
2022-09-07T22:19:04.546Z,18.04
2022-09-07T22:21:33.456Z,18.02
2022-09-07T22:24:05.118Z,17.96
2022-09-07T22:26:39.492Z,17.91
2022-09-07T22:29:08.949Z,17.87
2022-09-07T22:31:37.807Z,17.82
2022-09-07T22:35:22.256Z,17.79
2022-09-07T22:37:58.450Z,17.72
2022-09-07T22:40:26.051Z,17.70
2022-09-07T22:42:53.145Z,17.63
2022-09-07T22:45:20.459Z,17.60
2022-09-07T22:47:47.530Z,17.56
2022-09-07T22:50:15.094Z,17.51
2022-09-07T22:52:42.612Z,17.48
2022-09-07T22:55:10.142Z,17.45
2022-09-07T22:57:37.420Z,17.40
2022-09-07T23:00:07.341Z,17.36
2022-09-07T23:02:34.618Z,17.32
2022-09-07T23:05:02.584Z,17.26
2022-09-07T23:07:30.015Z,17.27
2022-09-07T23:09:57.446Z,17.22
2022-09-07T23:12:24.366Z,17.17
2022-09-07T23:14:54.205Z,17.15
2022-09-07T23:17:21.328Z,17.10
2022-09-07T23:19:48.320Z,17.07
2022-09-07T23:22:16.163Z,17.05
2022-09-07T23:24:43.185Z,17.00
2022-09-07T23:27:10.263Z,16.97
2022-09-07T23:29:37.446Z,16.94
2022-09-07T23:32:05.112Z,16.89
2022-09-07T23:34:32.241Z,16.86
2022-09-07T23:37:00.624Z,16.83
2022-09-07T23:39:32.291Z,16.79
2022-09-07T23:41:59.588Z,16.76
2022-09-07T23:44:27.101Z,16.72
2022-09-07T23:46:54.271Z,16.67
2022-09-07T23:49:21.305Z,16.64
2022-09-07T23:51:48.750Z,16.61
2022-09-07T23:54:15.674Z,16.57
2022-09-07T23:56:42.701Z,16.53
2022-09-07T23:59:10.322Z,16.51
